createdAt,value
2018-02-20T00:00:05.893Z,43.03
2018-02-20T00:02:33.406Z,40.75
2018-02-20T00:05:00.860Z,40.55
2018-02-20T00:07:29.103Z,46.35
2018-02-20T00:09:56.570Z,41.80
2018-02-20T00:12:24.873Z,41.03
2018-02-20T00:14:52.354Z,42.80
2018-02-20T00:17:19.874Z,39.92
2018-02-20T00:19:47.343Z,42.58
2018-02-20T00:22:15.698Z,44.60
2018-02-20T00:24:43.165Z,42.90
2018-02-20T00:27:10.608Z,41.95
2018-02-20T00:29:38.068Z,43.20
2018-02-20T00:32:06.306Z,41.67
2018-02-20T00:34:33.769Z,42.28
2018-02-20T00:37:01.230Z,42.67
2018-02-20T00:39:28.688Z,44.58
2018-02-20T00:41:56.149Z,45.28
2018-02-20T00:44:23.631Z,44.35
2018-02-20T00:46:51.869Z,47.20
2018-02-20T00:49:19.364Z,45.75
2018-02-20T00:51:47.612Z,44.28
2018-02-20T00:54:15.073Z,44.42
2018-02-20T00:56:42.538Z,44.17
2018-02-20T00:59:10.016Z,47.80
2018-02-20T01:01:38.237Z,45.47
2018-02-20T01:04:05.728Z,47.30
2018-02-20T01:06:33.286Z,45.35
2018-02-20T01:09:00.755Z,46.78
2018-02-20T01:11:28.217Z,44.22
2018-02-20T01:13:55.802Z,45.85
2018-02-20T01:16:23.297Z,45.20
2018-02-20T01:18:50.784Z,46.65
2018-02-20T01:21:18.262Z,44.42
2018-02-20T01:23:45.731Z,44.53
2018-02-20T01:26:13.267Z,45.33
2018-02-20T01:28:41.513Z,42.40
2018-02-20T01:31:08.986Z,45.92
2018-02-20T01:33:36.474Z,45.38
2018-02-20T01:36:03.960Z,45.92
2018-02-20T01:38:31.493Z,44.30
2018-02-20T01:40:58.951Z,45.22
2018-02-20T01:43:26.534Z,47.13
2018-02-20T01:45:53.993Z,46.85
2018-02-20T01:48:21.491Z,44.03
2018-02-20T01:51:00.554Z,45.10
2018-02-20T01:53:28.054Z,45.45
2018-02-20T01:55:55.544Z,43.00
2018-02-20T01:58:23.787Z,46.63
2018-02-20T02:00:51.265Z,46.47
2018-02-20T02:03:18.725Z,45.22
2018-02-20T02:05:46.971Z,45.95
2018-02-20T02:08:14.472Z,45.17
2018-02-20T02:10:43.685Z,43.67
2018-02-20T02:13:11.141Z,46.10
2018-02-20T02:15:38.587Z,43.83
2018-02-20T02:18:06.084Z,44.80
2018-02-20T02:20:33.562Z,47.33
2018-02-20T02:23:01.046Z,45.33
2018-02-20T02:25:29.295Z,45.50
2018-02-20T02:27:56.802Z,47.65
2018-02-20T02:30:24.247Z,47.55
2018-02-20T02:32:52.495Z,45.38
2018-02-20T02:35:20.027Z,44.70
2018-02-20T02:37:47.509Z,45.88
2018-02-20T02:40:14.961Z,47.15
2018-02-20T02:42:42.465Z,44.08
2018-02-20T02:45:09.927Z,46.75
2018-02-20T02:47:37.384Z,48.53
2018-02-20T02:50:04.879Z,45.10
2018-02-20T02:52:32.335Z,46.28
2018-02-20T02:54:59.821Z,44.50
2018-02-20T02:57:27.358Z,49.20
2018-02-20T02:59:54.828Z,46.90
2018-02-20T03:02:22.308Z,45.95
2018-02-20T03:04:49.769Z,43.90
2018-02-20T03:07:18.009Z,44.75
2018-02-20T03:09:45.471Z,44.72
2018-02-20T03:12:12.938Z,43.95
2018-02-20T03:14:40.401Z,43.60
2018-02-20T03:17:07.858Z,44.70
2018-02-20T03:19:36.109Z,45.30
2018-02-20T03:22:03.597Z,45.67
2018-02-20T03:24:31.848Z,44.22
2018-02-20T03:26:59.318Z,45.92
2018-02-20T03:29:26.791Z,44.55
2018-02-20T03:31:54.251Z,45.33
2018-02-20T03:34:21.723Z,45.55
2018-02-20T03:36:49.208Z,44.83
2018-02-20T03:39:16.675Z,43.28
2018-02-20T03:41:44.143Z,46.53
2018-02-20T03:44:11.639Z,45.35
2018-02-20T03:46:39.098Z,47.08
2018-02-20T03:49:06.553Z,45.45
2018-02-20T03:51:34.040Z,45.35
2018-02-20T03:54:01.530Z,45.67
2018-02-20T03:56:29.001Z,45.45
2018-02-20T03:58:56.469Z,47.25
2018-02-20T04:01:23.991Z,46.42
2018-02-20T04:03:51.469Z,48.45
2018-02-20T04:06:18.935Z,48.13
2018-02-20T04:08:46.498Z,44.63
2018-02-20T04:11:13.965Z,49.88
2018-02-20T04:13:42.210Z,46.88
2018-02-20T04:16:09.681Z,47.38
2018-02-20T04:18:37.163Z,46.75
2018-02-20T04:21:04.683Z,47.67
2018-02-20T04:23:32.196Z,48.75
2018-02-20T04:26:00.442Z,50.42
2018-02-20T04:28:28.705Z,48.47
2018-02-20T04:30:56.173Z,46.58
2018-02-20T04:33:23.679Z,51.35
2018-02-20T04:35:51.156Z,46.58
2018-02-20T04:38:18.611Z,47.40
2018-02-20T04:40:46.114Z,47.33
2018-02-20T04:43:13.587Z,48.17
2018-02-20T04:45:41.075Z,50.10
2018-02-20T04:48:09.297Z,47.53
2018-02-20T04:50:36.998Z,48.35
2018-02-20T04:53:04.503Z,48.70
2018-02-20T04:55:31.962Z,47.92
2018-02-20T04:57:59.442Z,52.38
2018-02-20T05:00:26.909Z,46.78
2018-02-20T05:02:54.384Z,49.70
2018-02-20T05:05:21.899Z,47.95
2018-02-20T05:07:49.376Z,47.47
2018-02-20T05:10:16.830Z,49.80
2018-02-20T05:12:44.301Z,45.72
2018-02-20T05:15:11.766Z,47.83
2018-02-20T05:17:39.231Z,47.60
2018-02-20T05:20:06.731Z,48.47
2018-02-20T05:22:34.218Z,46.80
2018-02-20T05:25:01.699Z,47.00
2018-02-20T05:27:29.160Z,49.97
2018-02-20T05:29:56.689Z,45.92
2018-02-20T05:32:24.150Z,47.55
2018-02-20T05:34:52.435Z,52.03
2018-02-20T05:37:19.951Z,49.92
2018-02-20T05:39:47.437Z,47.92
2018-02-20T05:42:14.909Z,49.72
2018-02-20T05:44:42.411Z,48.13
2018-02-20T05:47:09.889Z,49.78
2018-02-20T05:49:38.113Z,52.95
2018-02-20T05:52:05.620Z,49.85
2018-02-20T05:54:33.854Z,53.10
2018-02-20T05:57:01.351Z,49.95
2018-02-20T05:59:29.186Z,49.25
2018-02-20T06:01:57.266Z,47.58
2018-02-20T06:04:24.853Z,51.15
2018-02-20T06:06:52.318Z,45.70
2018-02-20T06:09:19.794Z,49.53
2018-02-20T06:11:47.273Z,51.25
2018-02-20T06:14:14.778Z,49.90
2018-02-20T06:16:42.248Z,47.75
2018-02-20T06:19:09.710Z,43.42
2018-02-20T06:21:37.977Z,46.30
2018-02-20T06:24:06.201Z,45.28
2018-02-20T06:26:33.702Z,47.53
2018-02-20T06:29:01.953Z,45.83
2018-02-20T06:31:29.567Z,48.00
2018-02-20T06:33:57.110Z,45.92
2018-02-20T06:36:24.754Z,46.03
2018-02-20T06:38:52.254Z,49.58
2018-02-20T06:41:19.721Z,49.38
2018-02-20T06:43:47.214Z,49.03
2018-02-20T06:46:14.725Z,46.05
2018-02-20T06:48:42.229Z,45.90
2018-02-20T06:51:09.765Z,47.55
2018-02-20T06:53:37.245Z,49.97
2018-02-20T06:56:04.754Z,45.22
2018-02-20T06:58:32.240Z,49.63
2018-02-20T07:00:59.764Z,47.33
2018-02-20T07:03:27.269Z,44.95
2018-02-20T07:05:54.734Z,49.25
2018-02-20T07:08:22.280Z,48.25
2018-02-20T07:10:49.779Z,47.17
2018-02-20T07:13:18.048Z,49.05
2018-02-20T07:15:47.308Z,47.42
2018-02-20T07:18:14.803Z,48.00
2018-02-20T07:20:42.317Z,45.92
2018-02-20T07:23:11.875Z,45.45
2018-02-20T07:25:39.332Z,45.25
2018-02-20T07:28:06.858Z,46.90
2018-02-20T07:30:34.387Z,46.67
2018-02-20T07:33:01.866Z,45.20
2018-02-20T07:35:35.003Z,47.92
2018-02-20T07:38:02.488Z,48.63
2018-02-20T07:40:29.947Z,46.50
2018-02-20T07:42:57.407Z,45.53
2018-02-20T07:45:25.642Z,44.13
2018-02-20T07:47:56.582Z,47.38
2018-02-20T07:50:25.020Z,48.42
2018-02-20T07:52:52.518Z,46.78
2018-02-20T07:55:22.103Z,47.78
2018-02-20T07:57:49.600Z,47.38
2018-02-20T08:00:17.104Z,47.55
2018-02-20T08:02:44.624Z,43.25
2018-02-20T08:05:12.137Z,46.40
2018-02-20T08:07:39.618Z,46.22
2018-02-20T08:10:07.117Z,46.10
2018-02-20T08:12:34.613Z,47.40
2018-02-20T08:15:02.085Z,47.00
2018-02-20T08:17:30.832Z,45.47
2018-02-20T08:19:58.322Z,46.63
2018-02-20T08:22:25.887Z,43.65
2018-02-20T08:24:53.385Z,46.47
2018-02-20T08:27:20.948Z,44.85
2018-02-20T08:29:48.483Z,46.08
2018-02-20T08:32:16.233Z,45.65
2018-02-20T08:34:43.759Z,45.72
2018-02-20T08:37:11.230Z,48.42
2018-02-20T08:39:39.520Z,44.90
2018-02-20T08:42:06.973Z,44.50
2018-02-20T08:44:34.452Z,44.50
2018-02-20T08:47:01.942Z,42.62
2018-02-20T08:49:29.430Z,43.58
2018-02-20T08:51:57.168Z,41.70
2018-02-20T08:54:24.817Z,42.28
2018-02-20T08:56:52.317Z,41.75
2018-02-20T08:59:19.794Z,42.35
2018-02-20T09:01:47.350Z,43.58
2018-02-20T09:04:14.883Z,39.47
2018-02-20T09:06:42.369Z,42.08
2018-02-20T09:09:09.921Z,38.53
2018-02-20T09:11:37.386Z,41.80
2018-02-20T09:14:04.928Z,38.72
2018-02-20T09:16:32.426Z,39.85
2018-02-20T09:18:59.935Z,40.53
2018-02-20T09:21:28.199Z,38.22
2018-02-20T09:23:55.848Z,39.25
2018-02-20T09:26:23.465Z,36.95
2018-02-20T09:28:50.964Z,38.80
2018-02-20T09:31:18.447Z,35.17
2018-02-20T09:33:45.970Z,39.92
2018-02-20T09:36:13.444Z,37.50
2018-02-20T09:38:40.935Z,36.90
2018-02-20T09:41:09.194Z,33.22
2018-02-20T09:43:36.708Z,32.85
2018-02-20T09:46:04.182Z,32.95
2018-02-20T09:48:31.666Z,32.55
2018-02-20T09:50:59.149Z,33.88
2018-02-20T09:53:26.639Z,30.80
2018-02-20T09:55:54.179Z,31.62
2018-02-20T09:58:21.641Z,32.20
2018-02-20T10:00:49.118Z,31.17
2018-02-20T10:03:16.640Z,30.05
2018-02-20T10:05:44.106Z,32.85
2018-02-20T10:08:11.638Z,31.55
2018-02-20T10:10:39.269Z,33.30
2018-02-20T10:13:06.750Z,30.62
2018-02-20T10:15:35.025Z,30.25
2018-02-20T10:18:03.311Z,31.52
2018-02-20T10:20:31.525Z,30.58
2018-02-20T10:22:58.983Z,28.17
2018-02-20T10:25:26.453Z,28.20
2018-02-20T10:27:53.951Z,28.73
2018-02-20T10:30:21.424Z,25.67
2018-02-20T10:32:48.906Z,29.15
2018-02-20T10:35:16.375Z,27.35
2018-02-20T10:37:43.841Z,29.02
2018-02-20T10:40:11.349Z,27.37
2018-02-20T10:42:38.846Z,28.80
2018-02-20T10:45:06.314Z,30.80
2018-02-20T10:47:33.837Z,31.10
2018-02-20T10:50:02.243Z,32.30
2018-02-20T10:52:30.722Z,30.10
2018-02-20T10:54:58.210Z,30.25
2018-02-20T10:57:25.704Z,32.65
2018-02-20T10:59:54.138Z,29.90
2018-02-20T11:02:21.641Z,31.40
2018-02-20T11:04:49.135Z,31.85
2018-02-20T11:07:16.612Z,30.75
2018-02-20T11:09:44.111Z,30.35
2018-02-20T11:12:11.589Z,31.08
2018-02-20T11:14:39.120Z,31.27
2018-02-20T11:17:06.570Z,30.42
2018-02-20T11:19:34.812Z,30.95
2018-02-20T11:22:02.271Z,31.23
2018-02-20T11:24:29.757Z,33.70
2018-02-20T11:26:57.270Z,33.83
2018-02-20T11:29:24.754Z,29.37
2018-02-20T11:31:52.255Z,31.23
2018-02-20T11:34:19.899Z,33.97
2018-02-20T11:36:48.151Z,33.15
2018-02-20T11:39:15.654Z,37.15
2018-02-20T11:41:43.150Z,33.10
2018-02-20T11:44:10.661Z,36.55
2018-02-20T11:46:38.150Z,35.35
2018-02-20T11:49:05.741Z,35.50
2018-02-20T11:51:33.242Z,36.83
2018-02-20T11:54:00.729Z,33.55
2018-02-20T11:56:28.217Z,36.97
2018-02-20T11:58:55.734Z,36.17
2018-02-20T12:01:23.267Z,35.33
2018-02-20T12:03:50.726Z,36.70
2018-02-20T12:06:18.225Z,35.70
2018-02-20T12:08:45.729Z,37.20
2018-02-20T12:11:13.951Z,39.53
2018-02-20T12:13:41.419Z,38.58
2018-02-20T12:16:08.914Z,38.45
2018-02-20T12:18:36.389Z,39.15
2018-02-20T12:21:03.990Z,38.00
2018-02-20T12:23:31.457Z,37.17
2018-02-20T12:25:58.945Z,36.88
2018-02-20T12:28:26.421Z,34.35
2018-02-20T12:30:53.902Z,34.80
2018-02-20T12:33:21.375Z,35.55
2018-02-20T12:35:48.929Z,36.55
2018-02-20T12:38:16.356Z,35.22
2018-02-20T12:40:43.832Z,35.65
2018-02-20T12:43:11.310Z,35.00
2018-02-20T12:45:38.775Z,35.60
2018-02-20T12:48:06.245Z,38.40
2018-02-20T12:50:33.735Z,38.08
2018-02-20T12:53:01.198Z,38.75
2018-02-20T12:55:28.657Z,37.03
2018-02-20T12:57:56.160Z,38.67
2018-02-20T13:00:23.684Z,38.05
2018-02-20T13:02:51.174Z,37.17
2018-02-20T13:05:18.642Z,37.42
2018-02-20T13:07:46.127Z,37.30
2018-02-20T13:10:14.375Z,36.83
2018-02-20T13:12:41.843Z,38.22
2018-02-20T13:15:10.346Z,36.38
2018-02-20T13:17:37.930Z,37.45
2018-02-20T13:20:05.457Z,40.40
2018-02-20T13:22:32.977Z,35.97
2018-02-20T13:25:00.470Z,37.83
2018-02-20T13:27:28.039Z,37.47
2018-02-20T13:29:55.532Z,40.80
2018-02-20T13:32:23.041Z,36.00
2018-02-20T13:34:50.525Z,36.35
2018-02-20T13:37:18.001Z,35.55
2018-02-20T13:39:45.487Z,34.47
2018-02-20T13:42:12.988Z,36.88
2018-02-20T13:44:40.453Z,35.97
2018-02-20T13:47:07.930Z,36.05
2018-02-20T13:49:35.406Z,33.60
2018-02-20T13:52:02.914Z,35.47
2018-02-20T13:54:30.390Z,32.22
2018-02-20T13:56:57.874Z,33.03
2018-02-20T13:59:25.336Z,32.40
2018-02-20T14:01:52.845Z,32.33
2018-02-20T14:04:20.325Z,30.20
2018-02-20T14:06:47.794Z,33.95
2018-02-20T14:09:15.292Z,32.53
2018-02-20T14:11:42.760Z,31.83
2018-02-20T14:14:10.393Z,31.80
2018-02-20T14:16:37.916Z,30.25
2018-02-20T14:19:05.395Z,30.90
2018-02-20T14:21:32.887Z,30.50
2018-02-20T14:24:00.397Z,31.50
2018-02-20T14:26:27.898Z,31.25
2018-02-20T14:28:55.420Z,31.98
2018-02-20T14:31:22.890Z,30.60
2018-02-20T14:33:50.379Z,31.30
2018-02-20T14:36:17.845Z,32.22
2018-02-20T14:38:45.308Z,32.78
2018-02-20T14:41:13.531Z,34.38
2018-02-20T14:43:41.036Z,33.15
2018-02-20T14:46:10.475Z,31.25
2018-02-20T14:48:37.937Z,32.25
2018-02-20T14:51:05.397Z,34.42
2018-02-20T14:53:32.862Z,32.40
2018-02-20T14:56:00.371Z,34.78
2018-02-20T14:58:27.974Z,35.33
2018-02-20T15:00:55.465Z,33.97
2018-02-20T15:03:22.953Z,31.95
2018-02-20T15:05:51.134Z,34.95
2018-02-20T15:08:18.636Z,36.90
2018-02-20T15:10:46.145Z,35.75
2018-02-20T15:13:14.377Z,36.45
2018-02-20T15:15:41.839Z,34.53
2018-02-20T15:18:09.476Z,35.80
2018-02-20T15:20:36.982Z,33.45
2018-02-20T15:23:05.238Z,38.03
2018-02-20T15:25:32.705Z,36.55
2018-02-20T15:28:00.945Z,37.53
2018-02-20T15:30:28.421Z,37.13
2018-02-20T15:32:55.892Z,34.90
2018-02-20T15:35:23.364Z,36.00
2018-02-20T15:37:51.594Z,37.50
2018-02-20T15:40:19.063Z,36.25
2018-02-20T15:42:46.533Z,34.90
2018-02-20T15:45:14.762Z,35.33
2018-02-20T15:47:42.218Z,38.03
2018-02-20T15:50:09.675Z,36.78
2018-02-20T15:52:37.161Z,36.17
2018-02-20T15:55:04.622Z,36.35
2018-02-20T15:57:32.122Z,36.85
2018-02-20T15:59:59.591Z,36.00
2018-02-20T16:02:27.055Z,37.60
2018-02-20T16:04:54.530Z,35.90
2018-02-20T16:07:21.998Z,36.75
2018-02-20T16:09:49.507Z,34.60
2018-02-20T16:12:16.975Z,36.28
2018-02-20T16:14:44.449Z,35.10
2018-02-20T16:17:11.920Z,39.45
2018-02-20T16:19:39.420Z,39.08
2018-02-20T16:22:06.889Z,37.67
2018-02-20T16:24:35.135Z,33.85
2018-02-20T16:27:02.583Z,35.30
2018-02-20T16:29:30.142Z,35.30
2018-02-20T16:31:57.594Z,36.60
2018-02-20T16:34:25.078Z,37.90
2018-02-20T16:36:52.562Z,35.42
2018-02-20T16:39:20.027Z,35.50
2018-02-20T16:41:47.525Z,36.30
2018-02-20T16:44:14.998Z,35.60
2018-02-20T16:46:42.458Z,36.88
2018-02-20T16:49:09.922Z,36.47
2018-02-20T16:51:38.142Z,39.95
2018-02-20T16:54:05.610Z,36.78
2018-02-20T16:56:33.098Z,36.15
2018-02-20T16:59:00.564Z,36.75
2018-02-20T17:01:28.035Z,36.65
2018-02-20T17:03:55.500Z,37.53
2018-02-20T17:06:22.965Z,35.03
2018-02-20T17:08:50.413Z,39.33
2018-02-20T17:11:17.871Z,35.38
2018-02-20T17:13:45.332Z,35.28
2018-02-20T17:16:12.830Z,35.30
2018-02-20T17:18:40.298Z,35.28
2018-02-20T17:21:07.762Z,41.20
2018-02-20T17:23:35.230Z,37.92
2018-02-20T17:26:03.469Z,36.65
2018-02-20T17:28:30.923Z,34.38
2018-02-20T17:30:58.384Z,34.50
2018-02-20T17:33:25.857Z,32.78
2018-02-20T17:35:53.310Z,32.85
2018-02-20T17:38:20.773Z,31.52
2018-02-20T17:40:48.246Z,31.48
2018-02-20T17:43:16.486Z,32.90
2018-02-20T17:45:43.957Z,33.60
2018-02-20T17:48:11.424Z,33.88
2018-02-20T17:50:38.892Z,34.58
2018-02-20T17:53:06.382Z,32.15
2018-02-20T17:55:33.861Z,33.63
2018-02-20T17:58:01.344Z,32.63
2018-02-20T18:00:28.806Z,34.03
2018-02-20T18:02:56.336Z,34.50
2018-02-20T18:05:23.790Z,31.77
2018-02-20T18:07:51.265Z,32.83
2018-02-20T18:10:18.725Z,30.95
2018-02-20T18:12:46.219Z,31.77
2018-02-20T18:15:14.451Z,30.27
2018-02-20T18:17:41.923Z,31.27
2018-02-20T18:20:09.399Z,34.95
2018-02-20T18:22:37.675Z,31.62
2018-02-20T18:25:05.301Z,32.17
2018-02-20T18:27:32.782Z,33.60
2018-02-20T18:30:00.251Z,32.10
2018-02-20T18:32:27.705Z,32.65
2018-02-20T18:34:55.170Z,31.48
2018-02-20T18:37:23.890Z,32.95
2018-02-20T18:39:51.410Z,32.03
2018-02-20T18:42:18.917Z,33.65
2018-02-20T18:44:46.614Z,36.05
2018-02-20T18:47:14.086Z,34.70
2018-02-20T18:49:42.327Z,34.72
2018-02-20T18:52:09.814Z,35.20
2018-02-20T18:54:38.094Z,33.22
2018-02-20T18:57:05.595Z,36.72
2018-02-20T18:59:33.058Z,33.95
2018-02-20T19:02:00.550Z,33.83
2018-02-20T19:04:28.026Z,33.70
2018-02-20T19:06:55.532Z,33.92
2018-02-20T19:09:23.002Z,33.47
2018-02-20T19:11:50.598Z,31.17
2018-02-20T19:14:18.314Z,32.47
2018-02-20T19:16:45.807Z,40.30
2018-02-20T19:19:13.293Z,33.15
2018-02-20T19:21:40.833Z,31.50
2018-02-20T19:24:08.343Z,32.92
2018-02-20T19:26:36.012Z,32.80
2018-02-20T19:29:03.768Z,33.20
2018-02-20T19:31:31.292Z,33.90
2018-02-20T19:33:58.787Z,34.88
2018-02-20T19:36:26.274Z,34.67
2018-02-20T19:38:53.764Z,31.95
2018-02-20T19:41:21.266Z,31.52
2018-02-20T19:43:48.746Z,33.85
2018-02-20T19:46:16.223Z,33.03
2018-02-20T19:48:43.753Z,35.45
2018-02-20T19:51:11.241Z,33.70
2018-02-20T19:53:38.719Z,34.70
2018-02-20T19:56:06.209Z,33.80
2018-02-20T19:58:33.724Z,34.50
2018-02-20T20:01:01.170Z,37.25
2018-02-20T20:03:28.948Z,35.90
2018-02-20T20:05:56.446Z,36.60
2018-02-20T20:08:23.967Z,35.42
2018-02-20T20:10:51.428Z,37.05
2018-02-20T20:13:18.950Z,36.65
2018-02-20T20:15:46.422Z,35.92
2018-02-20T20:18:13.985Z,36.83
2018-02-20T20:20:47.936Z,36.22
2018-02-20T20:23:09.210Z,36.75
2018-02-20T20:25:36.716Z,36.75
2018-02-20T20:28:04.241Z,37.45
2018-02-20T20:30:31.746Z,36.63
2018-02-20T20:32:59.323Z,36.08
2018-02-20T20:35:26.813Z,35.83
2018-02-20T20:37:54.729Z,35.30
2018-02-20T20:40:22.471Z,34.50
2018-02-20T20:42:49.940Z,36.42
2018-02-20T20:45:17.446Z,35.45
2018-02-20T20:47:45.051Z,33.08
2018-02-20T20:50:12.514Z,36.25
2018-02-20T20:52:40.181Z,35.33
2018-02-20T20:55:07.650Z,37.63
2018-02-20T20:57:35.107Z,36.17
2018-02-20T21:00:02.598Z,33.45
2018-02-20T21:02:30.052Z,32.15
2018-02-20T21:04:57.516Z,32.40
2018-02-20T21:07:25.045Z,31.55
2018-02-20T21:09:52.590Z,31.98
2018-02-20T21:12:20.156Z,32.88
2018-02-20T21:14:47.622Z,30.83
2018-02-20T21:17:15.092Z,31.85
2018-02-20T21:19:42.559Z,31.67
2018-02-20T21:22:10.020Z,33.20
2018-02-20T21:24:37.486Z,32.55
2018-02-20T21:27:05.716Z,33.10
2018-02-20T21:29:33.172Z,32.95
2018-02-20T21:32:00.659Z,34.78
2018-02-20T21:34:28.897Z,32.33
2018-02-20T21:36:56.451Z,31.70
2018-02-20T21:39:23.933Z,31.58
2018-02-20T21:41:51.399Z,33.50
2018-02-20T21:44:18.886Z,31.95
2018-02-20T21:46:46.345Z,34.95
2018-02-20T21:49:13.826Z,30.23
2018-02-20T21:51:41.331Z,31.90
2018-02-20T21:54:08.793Z,31.50
2018-02-20T21:56:37.034Z,33.58
2018-02-20T21:59:04.515Z,31.55
2018-02-20T22:01:31.979Z,30.92
2018-02-20T22:03:59.498Z,31.27
2018-02-20T22:06:26.992Z,32.70
2018-02-20T22:08:55.217Z,30.90
2018-02-20T22:11:22.689Z,31.08
2018-02-20T22:16:41.270Z,31.75
2018-02-20T22:19:08.755Z,33.17
2018-02-20T22:21:36.212Z,29.30
2018-02-20T22:24:03.691Z,30.65
2018-02-20T22:26:31.171Z,31.23
2018-02-20T22:28:58.655Z,30.20
2018-02-20T22:31:26.159Z,31.30
2018-02-20T22:33:53.622Z,28.60
2018-02-20T22:36:21.098Z,29.05
2018-02-20T22:38:48.610Z,29.75
2018-02-20T22:41:16.075Z,28.42
2018-02-20T22:43:44.314Z,26.98
2018-02-20T22:46:11.795Z,31.50
2018-02-20T22:48:39.275Z,29.50
2018-02-20T22:51:06.770Z,28.73
2018-02-20T22:53:34.242Z,30.55
2018-02-20T22:56:01.704Z,29.60
2018-02-20T22:58:29.193Z,27.23
2018-02-20T23:00:56.715Z,28.45
2018-02-20T23:03:24.202Z,26.45
2018-02-20T23:05:52.488Z,27.35
2018-02-20T23:08:20.014Z,26.62
2018-02-20T23:10:47.488Z,29.25
2018-02-20T23:13:14.965Z,29.48
2018-02-20T23:15:42.422Z,28.08
2018-02-20T23:18:09.895Z,28.10
2018-02-20T23:20:37.410Z,27.50
2018-02-20T23:23:04.930Z,27.95
2018-02-20T23:25:32.417Z,28.67
2018-02-20T23:27:59.908Z,27.90
2018-02-20T23:30:27.387Z,27.35
2018-02-20T23:32:54.883Z,28.05
2018-02-20T23:35:22.380Z,28.45
2018-02-20T23:37:49.850Z,28.30
2018-02-20T23:40:17.396Z,28.20
2018-02-20T23:42:44.902Z,25.20
2018-02-20T23:45:12.419Z,26.05
2018-02-20T23:47:39.971Z,26.58
2018-02-20T23:50:07.805Z,27.55
2018-02-20T23:52:40.961Z,26.42
2018-02-20T23:55:08.512Z,28.23
2018-02-20T23:57:36.010Z,28.30
